sensor_id;sensor_type;location;lat;lon;timestamp;P1;durP1;ratioP1;P2;durP2;ratioP2
51010;SDS011;37038;50.182;8.624;2022-10-30T00:02:35;28.88;;;19.80;;
51010;SDS011;37038;50.182;8.624;2022-10-30T00:05:24;31.88;;;20.35;;
51010;SDS011;37038;50.182;8.624;2022-10-30T00:08:12;31.27;;;20.33;;
51010;SDS011;37038;50.182;8.624;2022-10-30T00:11:12;31.00;;;21.40;;
51010;SDS011;37038;50.182;8.624;2022-10-30T00:14:00;31.25;;;20.58;;
51010;SDS011;37038;50.182;8.624;2022-10-30T00:16:48;32.35;;;20.80;;
51010;SDS011;37038;50.182;8.624;2022-10-30T00:19:37;37.85;;;21.05;;
51010;SDS011;37038;50.182;8.624;2022-10-30T00:22:25;33.20;;;21.40;;
51010;SDS011;37038;50.182;8.624;2022-10-30T00:25:13;32.92;;;21.25;;
51010;SDS011;37038;50.182;8.624;2022-10-30T00:28:04;37.22;;;21.30;;
51010;SDS011;37038;50.182;8.624;2022-10-30T00:30:53;34.55;;;21.85;;
51010;SDS011;37038;50.182;8.624;2022-10-30T00:33:51;27.98;;;19.40;;
51010;SDS011;37038;50.182;8.624;2022-10-30T00:36:41;32.50;;;21.17;;
51010;SDS011;37038;50.182;8.624;2022-10-30T00:39:29;34.28;;;21.65;;
51010;SDS011;37038;50.182;8.624;2022-10-30T00:42:17;32.38;;;19.70;;
51010;SDS011;37038;50.182;8.624;2022-10-30T00:45:05;35.95;;;20.58;;
51010;SDS011;37038;50.182;8.624;2022-10-30T00:47:55;31.00;;;20.88;;
51010;SDS011;37038;50.182;8.624;2022-10-30T00:50:50;29.35;;;20.27;;
51010;SDS011;37038;50.182;8.624;2022-10-30T00:53:39;30.85;;;22.25;;
51010;SDS011;37038;50.182;8.624;2022-10-30T00:56:28;37.33;;;23.77;;
51010;SDS011;37038;50.182;8.624;2022-10-30T00:59:22;32.13;;;21.58;;
51010;SDS011;37038;50.182;8.624;2022-10-30T01:02:14;35.20;;;22.92;;
51010;SDS011;37038;50.182;8.624;2022-10-30T01:05:04;31.52;;;20.65;;
51010;SDS011;37038;50.182;8.624;2022-10-30T01:07:53;40.30;;;23.35;;
51010;SDS011;37038;50.182;8.624;2022-10-30T01:10:42;39.58;;;25.85;;
51010;SDS011;37038;50.182;8.624;2022-10-30T01:13:32;39.03;;;26.33;;
51010;SDS011;37038;50.182;8.624;2022-10-30T01:16:27;32.95;;;22.65;;
51010;SDS011;37038;50.182;8.624;2022-10-30T01:22:56;42.58;;;27.27;;
51010;SDS011;37038;50.182;8.624;2022-10-30T01:29:27;40.90;;;25.08;;
51010;SDS011;37038;50.182;8.624;2022-10-30T01:32:44;34.60;;;23.98;;
51010;SDS011;37038;50.182;8.624;2022-10-30T01:35:54;41.25;;;25.55;;
51010;SDS011;37038;50.182;8.624;2022-10-30T01:39:12;37.15;;;25.63;;
51010;SDS011;37038;50.182;8.624;2022-10-30T01:58:31;49.38;;;32.50;;
51010;SDS011;37038;50.182;8.624;2022-10-30T02:01:31;39.13;;;26.40;;
51010;SDS011;37038;50.182;8.624;2022-10-30T02:04:21;49.65;;;31.73;;
51010;SDS011;37038;50.182;8.624;2022-10-30T02:07:10;41.40;;;26.35;;
51010;SDS011;37038;50.182;8.624;2022-10-30T02:09:58;35.05;;;26.85;;
51010;SDS011;37038;50.182;8.624;2022-10-30T02:12:46;45.38;;;29.23;;
51010;SDS011;37038;50.182;8.624;2022-10-30T02:15:35;55.10;;;31.33;;
51010;SDS011;37038;50.182;8.624;2022-10-30T02:18:24;52.55;;;31.55;;
51010;SDS011;37038;50.182;8.624;2022-10-30T02:21:13;42.85;;;28.40;;
51010;SDS011;37038;50.182;8.624;2022-10-30T02:24:01;53.42;;;31.33;;
51010;SDS011;37038;50.182;8.624;2022-10-30T02:26:49;49.53;;;30.65;;
51010;SDS011;37038;50.182;8.624;2022-10-30T02:29:37;43.58;;;29.50;;
51010;SDS011;37038;50.182;8.624;2022-10-30T02:32:25;59.13;;;37.55;;
51010;SDS011;37038;50.182;8.624;2022-10-30T02:35:12;54.10;;;34.35;;
51010;SDS011;37038;50.182;8.624;2022-10-30T02:38:01;53.85;;;32.88;;
51010;SDS011;37038;50.182;8.624;2022-10-30T02:40:49;39.92;;;29.00;;
51010;SDS011;37038;50.182;8.624;2022-10-30T02:43:37;46.33;;;31.48;;
51010;SDS011;37038;50.182;8.624;2022-10-30T02:46:25;52.13;;;31.45;;
51010;SDS011;37038;50.182;8.624;2022-10-30T02:49:13;48.13;;;30.95;;
51010;SDS011;37038;50.182;8.624;2022-10-30T02:52:01;49.95;;;33.85;;
51010;SDS011;37038;50.182;8.624;2022-10-30T02:54:49;53.70;;;30.15;;
51010;SDS011;37038;50.182;8.624;2022-10-30T02:57:37;45.17;;;30.88;;
51010;SDS011;37038;50.182;8.624;2022-10-30T03:00:25;56.38;;;31.15;;
51010;SDS011;37038;50.182;8.624;2022-10-30T03:03:13;38.65;;;29.17;;
51010;SDS011;37038;50.182;8.624;2022-10-30T03:06:07;46.22;;;28.55;;
51010;SDS011;37038;50.182;8.624;2022-10-30T03:08:57;47.10;;;28.88;;
51010;SDS011;37038;50.182;8.624;2022-10-30T03:11:45;41.13;;;23.90;;
51010;SDS011;37038;50.182;8.624;2022-10-30T03:14:33;43.83;;;26.33;;
51010;SDS011;37038;50.182;8.624;2022-10-30T03:17:21;40.03;;;25.83;;
51010;SDS011;37038;50.182;8.624;2022-10-30T03:20:09;38.92;;;27.25;;
51010;SDS011;37038;50.182;8.624;2022-10-30T03:22:58;49.00;;;27.80;;
51010;SDS011;37038;50.182;8.624;2022-10-30T03:25:50;42.67;;;28.65;;
51010;SDS011;37038;50.182;8.624;2022-10-30T03:28:41;44.50;;;29.42;;
51010;SDS011;37038;50.182;8.624;2022-10-30T03:31:29;42.08;;;26.52;;
51010;SDS011;37038;50.182;8.624;2022-10-30T03:34:18;43.80;;;26.95;;
51010;SDS011;37038;50.182;8.624;2022-10-30T03:37:06;46.55;;;29.25;;
51010;SDS011;37038;50.182;8.624;2022-10-30T03:39:54;50.63;;;30.52;;
51010;SDS011;37038;50.182;8.624;2022-10-30T03:42:42;44.25;;;28.23;;
51010;SDS011;37038;50.182;8.624;2022-10-30T03:45:31;39.40;;;28.58;;
51010;SDS011;37038;50.182;8.624;2022-10-30T03:48:20;44.22;;;27.52;;
51010;SDS011;37038;50.182;8.624;2022-10-30T03:51:10;40.22;;;27.08;;
51010;SDS011;37038;50.182;8.624;2022-10-30T03:53:58;43.03;;;28.45;;
51010;SDS011;37038;50.182;8.624;2022-10-30T03:56:46;39.75;;;26.58;;
51010;SDS011;37038;50.182;8.624;2022-10-30T03:59:35;46.30;;;30.00;;
51010;SDS011;37038;50.182;8.624;2022-10-30T04:02:23;37.83;;;23.88;;
51010;SDS011;37038;50.182;8.624;2022-10-30T04:05:11;38.50;;;26.92;;
51010;SDS011;37038;50.182;8.624;2022-10-30T04:08:01;46.42;;;29.25;;
51010;SDS011;37038;50.182;8.624;2022-10-30T04:10:53;48.53;;;31.20;;
51010;SDS011;37038;50.182;8.624;2022-10-30T04:13:41;46.08;;;27.48;;
51010;SDS011;37038;50.182;8.624;2022-10-30T04:16:29;35.80;;;24.52;;
51010;SDS011;37038;50.182;8.624;2022-10-30T04:19:17;40.15;;;25.20;;
51010;SDS011;37038;50.182;8.624;2022-10-30T04:22:05;44.88;;;27.13;;
51010;SDS011;37038;50.182;8.624;2022-10-30T04:24:53;35.30;;;25.60;;
51010;SDS011;37038;50.182;8.624;2022-10-30T04:27:41;42.08;;;26.70;;
51010;SDS011;37038;50.182;8.624;2022-10-30T04:30:30;38.83;;;25.23;;
51010;SDS011;37038;50.182;8.624;2022-10-30T04:33:23;40.78;;;27.23;;
51010;SDS011;37038;50.182;8.624;2022-10-30T04:36:11;36.80;;;25.75;;
51010;SDS011;37038;50.182;8.624;2022-10-30T04:38:59;38.53;;;24.80;;
51010;SDS011;37038;50.182;8.624;2022-10-30T04:41:48;31.73;;;21.63;;
51010;SDS011;37038;50.182;8.624;2022-10-30T04:44:36;39.45;;;25.17;;
51010;SDS011;37038;50.182;8.624;2022-10-30T04:47:24;30.80;;;22.60;;
51010;SDS011;37038;50.182;8.624;2022-10-30T04:50:12;37.30;;;21.75;;
51010;SDS011;37038;50.182;8.624;2022-10-30T04:53:02;35.83;;;23.00;;
51010;SDS011;37038;50.182;8.624;2022-10-30T04:55:56;32.28;;;24.25;;
51010;SDS011;37038;50.182;8.624;2022-10-30T04:58:44;31.63;;;22.63;;
51010;SDS011;37038;50.182;8.624;2022-10-30T05:01:32;37.15;;;27.30;;
51010;SDS011;37038;50.182;8.624;2022-10-30T05:04:20;37.10;;;26.30;;
51010;SDS011;37038;50.182;8.624;2022-10-30T05:07:08;43.80;;;26.83;;
51010;SDS011;37038;50.182;8.624;2022-10-30T05:09:56;39.65;;;26.17;;
51010;SDS011;37038;50.182;8.624;2022-10-30T05:12:44;36.25;;;26.27;;
51010;SDS011;37038;50.182;8.624;2022-10-30T05:15:33;40.08;;;24.98;;
51010;SDS011;37038;50.182;8.624;2022-10-30T05:18:21;42.58;;;28.67;;
51010;SDS011;37038;50.182;8.624;2022-10-30T05:21:08;45.78;;;31.95;;
51010;SDS011;37038;50.182;8.624;2022-10-30T05:23:56;40.13;;;26.38;;
51010;SDS011;37038;50.182;8.624;2022-10-30T05:26:45;42.30;;;29.20;;
51010;SDS011;37038;50.182;8.624;2022-10-30T05:29:33;47.53;;;28.45;;
51010;SDS011;37038;50.182;8.624;2022-10-30T05:32:21;46.25;;;29.10;;
51010;SDS011;37038;50.182;8.624;2022-10-30T05:35:09;42.63;;;27.35;;
51010;SDS011;37038;50.182;8.624;2022-10-30T05:37:57;42.30;;;28.73;;
51010;SDS011;37038;50.182;8.624;2022-10-30T05:40:47;32.45;;;21.65;;
51010;SDS011;37038;50.182;8.624;2022-10-30T05:43:34;45.58;;;29.25;;
51010;SDS011;37038;50.182;8.624;2022-10-30T05:46:22;45.95;;;30.38;;
51010;SDS011;37038;50.182;8.624;2022-10-30T05:49:10;45.70;;;28.40;;
51010;SDS011;37038;50.182;8.624;2022-10-30T05:51:58;44.80;;;30.52;;
51010;SDS011;37038;50.182;8.624;2022-10-30T05:54:46;50.13;;;30.90;;
51010;SDS011;37038;50.182;8.624;2022-10-30T05:57:34;38.10;;;26.40;;
51010;SDS011;37038;50.182;8.624;2022-10-30T06:00:22;47.08;;;30.88;;
51010;SDS011;37038;50.182;8.624;2022-10-30T06:03:12;52.25;;;31.90;;
51010;SDS011;37038;50.182;8.624;2022-10-30T06:49:38;40.43;;;27.10;;
51010;SDS011;37038;50.182;8.624;2022-10-30T06:53:21;41.42;;;26.75;;
51010;SDS011;37038;50.182;8.624;2022-10-30T08:57:59;22.60;;;12.45;;
51010;SDS011;37038;50.182;8.624;2022-10-30T09:04:34;23.08;;;14.63;;
51010;SDS011;37038;50.182;8.624;2022-10-30T09:07:53;21.85;;;14.65;;
51010;SDS011;37038;50.182;8.624;2022-10-30T09:11:15;25.92;;;15.13;;
51010;SDS011;37038;50.182;8.624;2022-10-30T09:15:30;23.25;;;16.63;;
51010;SDS011;37038;50.182;8.624;2022-10-30T09:18:49;30.63;;;17.20;;
51010;SDS011;37038;50.182;8.624;2022-10-30T09:26:54;26.38;;;16.58;;
51010;SDS011;37038;50.182;8.624;2022-10-30T09:30:59;24.13;;;17.52;;
51010;SDS011;37038;50.182;8.624;2022-10-30T09:34:26;27.67;;;18.17;;
51010;SDS011;37038;50.182;8.624;2022-10-30T09:44:57;23.35;;;17.88;;
51010;SDS011;37038;50.182;8.624;2022-10-30T11:07:59;24.60;;;15.35;;
51010;SDS011;37038;50.182;8.624;2022-10-30T12:23:49;21.52;;;11.45;;
51010;SDS011;37038;50.182;8.624;2022-10-30T12:32:07;14.73;;;8.48;;
51010;SDS011;37038;50.182;8.624;2022-10-30T16:14:27;21.23;;;11.52;;
51010;SDS011;37038;50.182;8.624;2022-10-30T16:17:23;16.33;;;11.18;;
51010;SDS011;37038;50.182;8.624;2022-10-30T16:20:22;16.70;;;10.48;;
51010;SDS011;37038;50.182;8.624;2022-10-30T16:24:21;16.42;;;11.48;;
51010;SDS011;37038;50.182;8.624;2022-10-30T16:27:23;16.77;;;10.85;;
51010;SDS011;37038;50.182;8.624;2022-10-30T16:31:38;16.05;;;10.32;;
51010;SDS011;37038;50.182;8.624;2022-10-30T16:34:40;19.30;;;11.18;;
51010;SDS011;37038;50.182;8.624;2022-10-30T16:37:33;20.52;;;10.63;;
51010;SDS011;37038;50.182;8.624;2022-10-30T16:40:27;21.95;;;11.73;;
51010;SDS011;37038;50.182;8.624;2022-10-30T16:49:04;20.88;;;11.20;;
51010;SDS011;37038;50.182;8.624;2022-10-30T16:52:01;14.68;;;10.27;;
51010;SDS011;37038;50.182;8.624;2022-10-30T16:54:56;22.08;;;11.43;;
51010;SDS011;37038;50.182;8.624;2022-10-30T16:57:52;19.23;;;10.85;;
51010;SDS011;37038;50.182;8.624;2022-10-30T17:00:47;18.83;;;11.35;;
51010;SDS011;37038;50.182;8.624;2022-10-30T17:03:51;14.55;;;10.07;;
51010;SDS011;37038;50.182;8.624;2022-10-30T17:06:43;20.75;;;11.30;;
51010;SDS011;37038;50.182;8.624;2022-10-30T17:09:35;17.35;;;11.07;;
51010;SDS011;37038;50.182;8.624;2022-10-30T17:12:26;18.95;;;11.60;;
51010;SDS011;37038;50.182;8.624;2022-10-30T17:15:15;18.83;;;11.73;;
51010;SDS011;37038;50.182;8.624;2022-10-30T17:18:10;22.83;;;12.10;;
51010;SDS011;37038;50.182;8.624;2022-10-30T17:21:05;17.10;;;12.23;;
51010;SDS011;37038;50.182;8.624;2022-10-30T17:24:01;20.33;;;12.02;;
51010;SDS011;37038;50.182;8.624;2022-10-30T17:27:00;17.60;;;10.80;;
51010;SDS011;37038;50.182;8.624;2022-10-30T17:29:51;22.17;;;13.07;;
51010;SDS011;37038;50.182;8.624;2022-10-30T17:32:41;21.00;;;11.60;;
51010;SDS011;37038;50.182;8.624;2022-10-30T17:35:32;20.77;;;12.82;;
51010;SDS011;37038;50.182;8.624;2022-10-30T17:38:20;18.30;;;11.68;;
51010;SDS011;37038;50.182;8.624;2022-10-30T17:41:11;16.85;;;11.68;;
51010;SDS011;37038;50.182;8.624;2022-10-30T17:44:03;21.75;;;12.18;;
51010;SDS011;37038;50.182;8.624;2022-10-30T17:46:53;20.98;;;11.23;;
51010;SDS011;37038;50.182;8.624;2022-10-30T17:49:41;20.95;;;12.30;;
51010;SDS011;37038;50.182;8.624;2022-10-30T17:52:33;21.88;;;12.23;;
51010;SDS011;37038;50.182;8.624;2022-10-30T17:55:22;18.70;;;12.27;;
51010;SDS011;37038;50.182;8.624;2022-10-30T17:58:16;21.55;;;12.50;;
51010;SDS011;37038;50.182;8.624;2022-10-30T18:01:04;20.88;;;12.02;;
51010;SDS011;37038;50.182;8.624;2022-10-30T18:03:53;23.30;;;12.60;;
51010;SDS011;37038;50.182;8.624;2022-10-30T18:06:44;18.38;;;11.65;;
51010;SDS011;37038;50.182;8.624;2022-10-30T18:09:33;21.85;;;12.57;;
51010;SDS011;37038;50.182;8.624;2022-10-30T18:12:21;22.42;;;12.65;;
51010;SDS011;37038;50.182;8.624;2022-10-30T18:18:19;22.85;;;12.73;;
51010;SDS011;37038;50.182;8.624;2022-10-30T18:21:14;18.45;;;12.43;;
51010;SDS011;37038;50.182;8.624;2022-10-30T18:24:08;21.70;;;12.93;;
51010;SDS011;37038;50.182;8.624;2022-10-30T18:26:58;17.77;;;11.65;;
51010;SDS011;37038;50.182;8.624;2022-10-30T18:29:46;19.23;;;12.27;;
51010;SDS011;37038;50.182;8.624;2022-10-30T18:32:34;18.92;;;12.82;;
51010;SDS011;37038;50.182;8.624;2022-10-30T18:35:32;21.58;;;13.27;;
51010;SDS011;37038;50.182;8.624;2022-10-30T18:38:24;56.45;;;40.13;;
51010;SDS011;37038;50.182;8.624;2022-10-30T18:41:13;61.08;;;39.42;;
51010;SDS011;37038;50.182;8.624;2022-10-30T18:44:04;34.90;;;21.77;;
51010;SDS011;37038;50.182;8.624;2022-10-30T18:46:52;33.70;;;17.13;;
51010;SDS011;37038;50.182;8.624;2022-10-30T18:49:48;25.73;;;16.02;;
51010;SDS011;37038;50.182;8.624;2022-10-30T18:52:37;23.27;;;14.50;;
51010;SDS011;37038;50.182;8.624;2022-10-30T18:55:33;29.23;;;15.00;;
51010;SDS011;37038;50.182;8.624;2022-10-30T18:58:27;21.35;;;14.20;;
51010;SDS011;37038;50.182;8.624;2022-10-30T19:01:15;24.17;;;14.65;;
51010;SDS011;37038;50.182;8.624;2022-10-30T19:04:08;24.60;;;15.70;;
51010;SDS011;37038;50.182;8.624;2022-10-30T19:06:57;22.33;;;16.10;;
51010;SDS011;37038;50.182;8.624;2022-10-30T19:09:47;21.60;;;15.75;;
51010;SDS011;37038;50.182;8.624;2022-10-30T19:12:36;21.17;;;15.07;;
51010;SDS011;37038;50.182;8.624;2022-10-30T19:15:32;29.67;;;15.82;;
51010;SDS011;37038;50.182;8.624;2022-10-30T19:18:23;24.25;;;15.00;;
51010;SDS011;37038;50.182;8.624;2022-10-30T19:21:16;24.58;;;14.77;;
51010;SDS011;37038;50.182;8.624;2022-10-30T19:24:14;25.23;;;17.08;;
51010;SDS011;37038;50.182;8.624;2022-10-30T19:27:19;25.15;;;15.45;;
51010;SDS011;37038;50.182;8.624;2022-10-30T19:30:10;22.15;;;14.52;;
51010;SDS011;37038;50.182;8.624;2022-10-30T19:33:04;24.98;;;15.70;;
51010;SDS011;37038;50.182;8.624;2022-10-30T19:36:24;29.83;;;16.38;;
51010;SDS011;37038;50.182;8.624;2022-10-30T19:39:35;22.15;;;15.60;;
51010;SDS011;37038;50.182;8.624;2022-10-30T19:42:31;23.45;;;15.48;;
51010;SDS011;37038;50.182;8.624;2022-10-30T19:45:24;26.17;;;15.82;;
51010;SDS011;37038;50.182;8.624;2022-10-30T19:48:22;25.63;;;16.23;;
51010;SDS011;37038;50.182;8.624;2022-10-30T19:51:39;23.40;;;15.35;;
51010;SDS011;37038;50.182;8.624;2022-10-30T19:54:28;23.23;;;15.55;;
51010;SDS011;37038;50.182;8.624;2022-10-30T19:57:26;29.83;;;17.17;;
51010;SDS011;37038;50.182;8.624;2022-10-30T20:00:34;27.77;;;18.15;;
51010;SDS011;37038;50.182;8.624;2022-10-30T20:03:27;30.45;;;18.35;;
51010;SDS011;37038;50.182;8.624;2022-10-30T20:06:15;23.65;;;17.20;;
51010;SDS011;37038;50.182;8.624;2022-10-30T20:09:10;25.77;;;19.20;;
51010;SDS011;37038;50.182;8.624;2022-10-30T20:12:08;29.75;;;18.42;;
51010;SDS011;37038;50.182;8.624;2022-10-30T20:14:59;30.17;;;20.73;;
51010;SDS011;37038;50.182;8.624;2022-10-30T20:17:48;28.40;;;20.20;;
51010;SDS011;37038;50.182;8.624;2022-10-30T20:20:37;27.83;;;18.85;;
51010;SDS011;37038;50.182;8.624;2022-10-30T20:23:32;30.30;;;19.75;;
51010;SDS011;37038;50.182;8.624;2022-10-30T20:29:14;30.60;;;19.73;;
51010;SDS011;37038;50.182;8.624;2022-10-30T20:32:03;24.65;;;18.52;;
51010;SDS011;37038;50.182;8.624;2022-10-30T20:34:55;27.05;;;19.23;;
51010;SDS011;37038;50.182;8.624;2022-10-30T20:37:54;33.97;;;19.30;;
51010;SDS011;37038;50.182;8.624;2022-10-30T20:40:48;34.90;;;19.00;;
51010;SDS011;37038;50.182;8.624;2022-10-30T20:43:36;23.92;;;17.52;;
51010;SDS011;37038;50.182;8.624;2022-10-30T20:46:25;25.33;;;17.02;;
51010;SDS011;37038;50.182;8.624;2022-10-30T20:49:13;30.58;;;18.70;;
51010;SDS011;37038;50.182;8.624;2022-10-30T20:52:04;30.17;;;18.52;;
51010;SDS011;37038;50.182;8.624;2022-10-30T20:54:53;26.13;;;18.00;;
51010;SDS011;37038;50.182;8.624;2022-10-30T20:57:41;25.42;;;18.48;;
51010;SDS011;37038;50.182;8.624;2022-10-30T21:00:29;23.95;;;18.60;;
51010;SDS011;37038;50.182;8.624;2022-10-30T21:03:18;29.10;;;18.70;;
51010;SDS011;37038;50.182;8.624;2022-10-30T21:06:09;28.20;;;17.65;;
51010;SDS011;37038;50.182;8.624;2022-10-30T21:09:02;29.42;;;19.30;;
51010;SDS011;37038;50.182;8.624;2022-10-30T21:11:50;30.67;;;18.65;;
51010;SDS011;37038;50.182;8.624;2022-10-30T21:14:39;24.98;;;19.05;;
51010;SDS011;37038;50.182;8.624;2022-10-30T21:17:28;27.67;;;18.70;;
51010;SDS011;37038;50.182;8.624;2022-10-30T21:20:19;29.30;;;19.17;;
51010;SDS011;37038;50.182;8.624;2022-10-30T21:23:07;25.92;;;19.38;;
51010;SDS011;37038;50.182;8.624;2022-10-30T21:26:00;25.92;;;19.27;;
51010;SDS011;37038;50.182;8.624;2022-10-30T21:28:50;27.98;;;17.98;;
51010;SDS011;37038;50.182;8.624;2022-10-30T21:31:39;32.75;;;20.10;;
51010;SDS011;37038;50.182;8.624;2022-10-30T21:34:29;32.22;;;19.20;;
51010;SDS011;37038;50.182;8.624;2022-10-30T21:37:18;25.08;;;17.05;;
51010;SDS011;37038;50.182;8.624;2022-10-30T21:40:06;24.52;;;17.05;;
51010;SDS011;37038;50.182;8.624;2022-10-30T21:42:57;26.52;;;16.52;;
51010;SDS011;37038;50.182;8.624;2022-10-30T21:45:50;31.85;;;17.05;;
51010;SDS011;37038;50.182;8.624;2022-10-30T21:48:38;28.23;;;17.45;;
51010;SDS011;37038;50.182;8.624;2022-10-30T21:51:27;25.27;;;17.13;;
51010;SDS011;37038;50.182;8.624;2022-10-30T21:54:18;22.52;;;15.70;;
51010;SDS011;37038;50.182;8.624;2022-10-30T21:57:07;23.67;;;16.27;;
51010;SDS011;37038;50.182;8.624;2022-10-30T21:59:55;26.60;;;16.38;;
51010;SDS011;37038;50.182;8.624;2022-10-30T22:02:49;22.77;;;16.30;;
51010;SDS011;37038;50.182;8.624;2022-10-30T22:05:40;24.30;;;15.70;;
51010;SDS011;37038;50.182;8.624;2022-10-30T22:08:28;27.60;;;16.80;;
51010;SDS011;37038;50.182;8.624;2022-10-30T22:11:17;21.75;;;16.55;;
51010;SDS011;37038;50.182;8.624;2022-10-30T22:14:08;24.45;;;17.65;;
51010;SDS011;37038;50.182;8.624;2022-10-30T22:16:57;27.90;;;19.08;;
51010;SDS011;37038;50.182;8.624;2022-10-30T22:19:45;30.10;;;19.60;;
51010;SDS011;37038;50.182;8.624;2022-10-30T22:22:33;27.23;;;20.23;;
51010;SDS011;37038;50.182;8.624;2022-10-30T22:25:21;35.17;;;21.80;;
51010;SDS011;37038;50.182;8.624;2022-10-30T22:28:09;30.60;;;20.83;;
51010;SDS011;37038;50.182;8.624;2022-10-30T22:31:04;30.08;;;22.63;;
51010;SDS011;37038;50.182;8.624;2022-10-30T22:34:05;29.83;;;20.88;;
51010;SDS011;37038;50.182;8.624;2022-10-30T22:36:53;26.33;;;17.90;;
51010;SDS011;37038;50.182;8.624;2022-10-30T22:39:41;30.42;;;18.45;;
51010;SDS011;37038;50.182;8.624;2022-10-30T22:42:29;23.20;;;17.08;;
51010;SDS011;37038;50.182;8.624;2022-10-30T22:45:18;29.13;;;17.35;;
51010;SDS011;37038;50.182;8.624;2022-10-30T22:48:06;27.05;;;18.13;;
51010;SDS011;37038;50.182;8.624;2022-10-30T22:51:01;32.80;;;17.95;;
51010;SDS011;37038;50.182;8.624;2022-10-30T22:53:56;28.10;;;18.75;;
51010;SDS011;37038;50.182;8.624;2022-10-30T22:56:47;24.98;;;17.45;;
51010;SDS011;37038;50.182;8.624;2022-10-30T22:59:35;26.95;;;16.95;;
51010;SDS011;37038;50.182;8.624;2022-10-30T23:02:23;18.38;;;14.60;;
51010;SDS011;37038;50.182;8.624;2022-10-30T23:05:11;23.38;;;16.17;;
51010;SDS011;37038;50.182;8.624;2022-10-30T23:07:59;22.63;;;14.45;;
51010;SDS011;37038;50.182;8.624;2022-10-30T23:10:51;25.83;;;15.30;;
51010;SDS011;37038;50.182;8.624;2022-10-30T23:13:40;19.00;;;12.40;;
51010;SDS011;37038;50.182;8.624;2022-10-30T23:16:28;18.60;;;11.27;;
51010;SDS011;37038;50.182;8.624;2022-10-30T23:19:16;17.20;;;11.88;;
51010;SDS011;37038;50.182;8.624;2022-10-30T23:22:04;20.25;;;13.07;;
51010;SDS011;37038;50.182;8.624;2022-10-30T23:24:52;17.98;;;11.35;;
51010;SDS011;37038;50.182;8.624;2022-10-30T23:27:40;21.92;;;11.88;;
51010;SDS011;37038;50.182;8.624;2022-10-30T23:30:28;20.80;;;12.52;;
51010;SDS011;37038;50.182;8.624;2022-10-30T23:33:16;18.77;;;11.98;;
51010;SDS011;37038;50.182;8.624;2022-10-30T23:36:04;20.08;;;10.77;;
51010;SDS011;37038;50.182;8.624;2022-10-30T23:38:53;21.60;;;10.93;;
51010;SDS011;37038;50.182;8.624;2022-10-30T23:41:47;17.83;;;11.85;;
51010;SDS011;37038;50.182;8.624;2022-10-30T23:44:38;18.92;;;11.25;;
51010;SDS011;37038;50.182;8.624;2022-10-30T23:47:26;20.10;;;11.70;;
51010;SDS011;37038;50.182;8.624;2022-10-30T23:50:14;15.60;;;11.52;;
51010;SDS011;37038;50.182;8.624;2022-10-30T23:53:03;17.95;;;11.15;;
51010;SDS011;37038;50.182;8.624;2022-10-30T23:55:52;21.27;;;12.18;;
51010;SDS011;37038;50.182;8.624;2022-10-30T23:58:41;22.48;;;11.65;;
